sensor_id;sensor_type;location;lat;lon;timestamp;pressure;altitude;pressure_sealevel;temperature;humidity
63343;BME280;49465;57.664;39.686;2024-01-07T00:00:00;100822.63;;;-18.04;40.39
63343;BME280;49465;57.664;39.686;2024-01-07T00:02:31;100830.03;;;-18.06;40.50
63343;BME280;49465;57.664;39.686;2024-01-07T00:05:00;100828.59;;;-18.02;41.77
63343;BME280;49465;57.664;39.686;2024-01-07T00:07:35;100836.69;;;-18.06;40.80
63343;BME280;49465;57.664;39.686;2024-01-07T00:10:04;100839.00;;;-18.09;40.56
63343;BME280;49465;57.664;39.686;2024-01-07T00:12:38;100844.38;;;-18.03;41.65
63343;BME280;49465;57.664;39.686;2024-01-07T00:15:13;100841.88;;;-18.03;40.53
63343;BME280;49465;57.664;39.686;2024-01-07T00:17:44;100835.31;;;-18.01;41.83
63343;BME280;49465;57.664;39.686;2024-01-07T00:20:15;100835.31;;;-18.01;41.23
63343;BME280;49465;57.664;39.686;2024-01-07T00:22:47;100846.38;;;-17.98;41.95
63343;BME280;49465;57.664;39.686;2024-01-07T00:25:15;100849.47;;;-18.02;41.04
63343;BME280;49465;57.664;39.686;2024-01-07T00:27:44;100843.69;;;-18.01;42.08
63343;BME280;49465;57.664;39.686;2024-01-07T00:30:13;100845.25;;;-18.03;41.54
63343;BME280;49465;57.664;39.686;2024-01-07T00:32:48;100849.56;;;-18.00;41.07
63343;BME280;49465;57.664;39.686;2024-01-07T00:35:17;100847.53;;;-17.92;42.09
63343;BME280;49465;57.664;39.686;2024-01-07T00:37:46;100857.69;;;-17.89;42.09
63343;BME280;49465;57.664;39.686;2024-01-07T00:40:12;100855.38;;;-17.86;41.45
63343;BME280;49465;57.664;39.686;2024-01-07T00:42:41;100850.38;;;-17.86;42.09
63343;BME280;49465;57.664;39.686;2024-01-07T00:45:13;100862.47;;;-17.79;40.87
63343;BME280;49465;57.664;39.686;2024-01-07T00:47:43;100851.91;;;-17.74;41.67
63343;BME280;49465;57.664;39.686;2024-01-07T00:50:16;100869.38;;;-17.75;41.14
63343;BME280;49465;57.664;39.686;2024-01-07T00:52:48;100870.44;;;-17.71;42.08
63343;BME280;49465;57.664;39.686;2024-01-07T00:55:19;100872.75;;;-17.75;41.39
63343;BME280;49465;57.664;39.686;2024-01-07T00:57:50;100873.34;;;-17.79;40.70
63343;BME280;49465;57.664;39.686;2024-01-07T01:00:20;100881.03;;;-17.76;40.92
63343;BME280;49465;57.664;39.686;2024-01-07T01:02:52;100879.75;;;-17.69;41.14
63343;BME280;49465;57.664;39.686;2024-01-07T01:05:24;100884.56;;;-17.72;41.47
63343;BME280;49465;57.664;39.686;2024-01-07T01:07:55;100875.25;;;-17.75;40.85
63343;BME280;49465;57.664;39.686;2024-01-07T01:10:26;100882.41;;;-17.81;42.26
63343;BME280;49465;57.664;39.686;2024-01-07T01:13:00;100884.91;;;-17.81;41.48
63343;BME280;49465;57.664;39.686;2024-01-07T01:15:38;100886.63;;;-17.80;42.17
63343;BME280;49465;57.664;39.686;2024-01-07T01:18:10;100892.28;;;-17.84;42.40
63343;BME280;49465;57.664;39.686;2024-01-07T01:20:39;100890.69;;;-17.82;41.04
63343;BME280;49465;57.664;39.686;2024-01-07T01:23:13;100892.09;;;-17.87;41.46
63343;BME280;49465;57.664;39.686;2024-01-07T01:25:45;100892.69;;;-17.91;42.45
63343;BME280;49465;57.664;39.686;2024-01-07T01:28:13;100893.72;;;-17.87;41.46
63343;BME280;49465;57.664;39.686;2024-01-07T01:30:47;100882.16;;;-17.85;42.11
63343;BME280;49465;57.664;39.686;2024-01-07T01:33:19;100897.34;;;-17.82;41.21
63343;BME280;49465;57.664;39.686;2024-01-07T01:35:50;100902.72;;;-17.76;41.56
63343;BME280;49465;57.664;39.686;2024-01-07T01:38:28;100902.63;;;-17.78;41.44
63343;BME280;49465;57.664;39.686;2024-01-07T01:41:03;100901.84;;;-17.77;41.84
63343;BME280;49465;57.664;39.686;2024-01-07T01:43:31;100902.53;;;-17.79;41.18
63343;BME280;49465;57.664;39.686;2024-01-07T01:46:05;100915.06;;;-17.79;42.08
63343;BME280;49465;57.664;39.686;2024-01-07T01:48:36;100920.00;;;-17.81;42.14
63343;BME280;49465;57.664;39.686;2024-01-07T01:51:05;100915.06;;;-17.79;41.50
63343;BME280;49465;57.664;39.686;2024-01-07T01:53:36;100922.41;;;-17.82;41.70
63343;BME280;49465;57.664;39.686;2024-01-07T01:56:04;100920.94;;;-17.79;42.11
63343;BME280;49465;57.664;39.686;2024-01-07T01:58:36;100925.84;;;-17.80;41.79
63343;BME280;49465;57.664;39.686;2024-01-07T02:01:05;100925.34;;;-17.75;41.08
63343;BME280;49465;57.664;39.686;2024-01-07T02:03:34;100928.72;;;-17.74;41.62
63343;BME280;49465;57.664;39.686;2024-01-07T02:06:05;100930.56;;;-17.71;41.73
63343;BME280;49465;57.664;39.686;2024-01-07T02:08:35;100931.41;;;-17.71;41.12
63343;BME280;49465;57.664;39.686;2024-01-07T02:11:21;100934.09;;;-17.68;41.45
63343;BME280;49465;57.664;39.686;2024-01-07T02:13:55;100935.66;;;-17.70;40.61
63343;BME280;49465;57.664;39.686;2024-01-07T02:16:29;100937.03;;;-17.75;41.80
63343;BME280;49465;57.664;39.686;2024-01-07T02:19:01;100933.63;;;-17.90;40.76
63343;BME280;49465;57.664;39.686;2024-01-07T02:21:29;100933.34;;;-17.95;41.86
63343;BME280;49465;57.664;39.686;2024-01-07T02:24:03;100930.94;;;-17.94;40.62
63343;BME280;49465;57.664;39.686;2024-01-07T02:26:35;100931.72;;;-17.95;41.75
63343;BME280;49465;57.664;39.686;2024-01-07T02:29:04;100943.28;;;-17.97;41.94
63343;BME280;49465;57.664;39.686;2024-01-07T02:31:33;100946.38;;;-18.01;41.12
63343;BME280;49465;57.664;39.686;2024-01-07T02:34:05;100966.22;;;-18.04;41.17
63343;BME280;49465;57.664;39.686;2024-01-07T02:36:40;100970.50;;;-18.16;41.05
63343;BME280;49465;57.664;39.686;2024-01-07T02:39:09;100971.34;;;-18.16;41.51
63343;BME280;49465;57.664;39.686;2024-01-07T02:41:40;100971.81;;;-18.21;41.72
63343;BME280;49465;57.664;39.686;2024-01-07T02:44:11;100970.97;;;-18.08;40.91
63343;BME280;49465;57.664;39.686;2024-01-07T02:46:40;100975.88;;;-18.10;40.96
63343;BME280;49465;57.664;39.686;2024-01-07T02:49:15;100977.59;;;-18.09;41.52
63343;BME280;49465;57.664;39.686;2024-01-07T02:51:44;100972.50;;;-18.10;41.29
63343;BME280;49465;57.664;39.686;2024-01-07T02:54:22;100973.53;;;-18.07;41.61
63343;BME280;49465;57.664;39.686;2024-01-07T02:56:51;100971.91;;;-18.06;41.67
63343;BME280;49465;57.664;39.686;2024-01-07T02:59:23;100960.63;;;-18.13;41.68
63343;BME280;49465;57.664;39.686;2024-01-07T03:01:54;100966.53;;;-18.13;41.27
63343;BME280;49465;57.664;39.686;2024-01-07T03:04:26;100964.78;;;-18.14;41.57
63343;BME280;49465;57.664;39.686;2024-01-07T03:07:04;100967.19;;;-18.15;41.63
63343;BME280;49465;57.664;39.686;2024-01-07T03:09:32;100977.22;;;-18.15;40.70
63343;BME280;49465;57.664;39.686;2024-01-07T03:12:04;100977.22;;;-18.15;40.97
63343;BME280;49465;57.664;39.686;2024-01-07T03:14:40;100988.13;;;-18.15;41.18
63343;BME280;49465;57.664;39.686;2024-01-07T03:17:11;100984.56;;;-18.18;41.20
63343;BME280;49465;57.664;39.686;2024-01-07T03:19:43;101002.06;;;-18.18;41.23
63343;BME280;49465;57.664;39.686;2024-01-07T03:22:16;101006.59;;;-18.26;41.31
63343;BME280;49465;57.664;39.686;2024-01-07T03:24:49;101000.31;;;-18.33;40.45
63343;BME280;49465;57.664;39.686;2024-01-07T03:27:21;101011.88;;;-18.35;40.49
63343;BME280;49465;57.664;39.686;2024-01-07T03:29:54;101005.25;;;-18.34;40.69
63343;BME280;49465;57.664;39.686;2024-01-07T03:32:24;101002.66;;;-18.36;41.43
63343;BME280;49465;57.664;39.686;2024-01-07T03:34:59;101009.19;;;-18.38;41.80
63343;BME280;49465;57.664;39.686;2024-01-07T03:37:33;101014.50;;;-18.33;41.68
63343;BME280;49465;57.664;39.686;2024-01-07T03:40:13;101016.59;;;-18.39;40.99
63343;BME280;49465;57.664;39.686;2024-01-07T03:42:45;101017.00;;;-18.33;41.17
63343;BME280;49465;57.664;39.686;2024-01-07T03:45:21;101017.56;;;-18.37;41.39
63343;BME280;49465;57.664;39.686;2024-01-07T03:47:55;101019.00;;;-18.41;41.48
63343;BME280;49465;57.664;39.686;2024-01-07T03:50:27;101016.72;;;-18.38;40.50
63343;BME280;49465;57.664;39.686;2024-01-07T03:52:55;101031.91;;;-18.35;40.90
63343;BME280;49465;57.664;39.686;2024-01-07T03:55:26;101028.53;;;-18.35;40.46
63343;BME280;49465;57.664;39.686;2024-01-07T03:58:01;101029.00;;;-18.41;41.28
63343;BME280;49465;57.664;39.686;2024-01-07T04:00:30;101037.31;;;-18.42;41.16
63343;BME280;49465;57.664;39.686;2024-01-07T04:03:01;101048.88;;;-18.44;40.73
63343;BME280;49465;57.664;39.686;2024-01-07T04:05:28;101057.50;;;-18.52;40.29
63343;BME280;49465;57.664;39.686;2024-01-07T04:08:09;101060.00;;;-18.52;40.39
63343;BME280;49465;57.664;39.686;2024-01-07T04:10:38;101063.38;;;-18.51;41.28
63343;BME280;49465;57.664;39.686;2024-01-07T04:13:10;101068.38;;;-18.51;40.15
63343;BME280;49465;57.664;39.686;2024-01-07T04:15:38;101073.75;;;-18.59;41.37
63343;BME280;49465;57.664;39.686;2024-01-07T04:18:18;101082.69;;;-18.62;41.11
63343;BME280;49465;57.664;39.686;2024-01-07T04:20:47;101084.69;;;-18.70;40.99
63343;BME280;49465;57.664;39.686;2024-01-07T04:23:19;101091.44;;;-18.69;40.57
63343;BME280;49465;57.664;39.686;2024-01-07T04:25:53;101090.78;;;-18.66;40.18
63343;BME280;49465;57.664;39.686;2024-01-07T04:28:21;101093.38;;;-18.65;40.31
63343;BME280;49465;57.664;39.686;2024-01-07T04:30:53;101101.00;;;-18.63;40.67
63343;BME280;49465;57.664;39.686;2024-01-07T04:33:22;101101.75;;;-18.64;41.38
63343;BME280;49465;57.664;39.686;2024-01-07T04:35:56;101100.59;;;-18.69;41.08
63343;BME280;49465;57.664;39.686;2024-01-07T04:38:29;101100.94;;;-18.77;40.38
63343;BME280;49465;57.664;39.686;2024-01-07T04:41:00;101107.66;;;-18.76;41.40
63343;BME280;49465;57.664;39.686;2024-01-07T04:43:35;101106.69;;;-18.78;40.37
63343;BME280;49465;57.664;39.686;2024-01-07T04:46:13;101116.34;;;-18.84;40.64
63343;BME280;49465;57.664;39.686;2024-01-07T04:48:47;101123.13;;;-18.95;40.43
63343;BME280;49465;57.664;39.686;2024-01-07T04:51:22;101124.66;;;-18.97;40.39
63343;BME280;49465;57.664;39.686;2024-01-07T04:53:56;101119.56;;;-18.98;41.03
63343;BME280;49465;57.664;39.686;2024-01-07T04:56:31;101122.13;;;-18.85;40.47
63343;BME280;49465;57.664;39.686;2024-01-07T04:59:00;101120.47;;;-18.84;40.21
63343;BME280;49465;57.664;39.686;2024-01-07T05:01:32;101125.38;;;-18.86;40.33
63343;BME280;49465;57.664;39.686;2024-01-07T05:04:06;101133.31;;;-18.91;40.19
63343;BME280;49465;57.664;39.686;2024-01-07T05:06:41;101134.56;;;-18.98;41.06
63343;BME280;49465;57.664;39.686;2024-01-07T05:09:13;101127.72;;;-19.01;41.12
63343;BME280;49465;57.664;39.686;2024-01-07T05:11:47;101126.09;;;-19.00;40.17
63343;BME280;49465;57.664;39.686;2024-01-07T05:14:16;101125.22;;;-19.01;41.08
63343;BME280;49465;57.664;39.686;2024-01-07T05:16:50;101125.88;;;-19.03;40.27
63343;BME280;49465;57.664;39.686;2024-01-07T05:19:24;101130.88;;;-19.03;40.88
63343;BME280;49465;57.664;39.686;2024-01-07T05:21:59;101142.97;;;-19.09;41.14
63343;BME280;49465;57.664;39.686;2024-01-07T05:24:31;101139.38;;;-19.13;40.89
63343;BME280;49465;57.664;39.686;2024-01-07T05:27:05;101137.44;;;-19.17;40.80
63343;BME280;49465;57.664;39.686;2024-01-07T05:29:34;101141.34;;;-19.21;41.06
63343;BME280;49465;57.664;39.686;2024-01-07T05:32:09;101142.13;;;-19.22;40.63
63343;BME280;49465;57.664;39.686;2024-01-07T05:34:41;101152.47;;;-19.29;40.56
63343;BME280;49465;57.664;39.686;2024-01-07T05:37:16;101149.22;;;-19.28;40.18
63343;BME280;49465;57.664;39.686;2024-01-07T05:39:47;101153.25;;;-19.30;40.81
63343;BME280;49465;57.664;39.686;2024-01-07T05:42:22;101162.34;;;-19.30;41.18
63343;BME280;49465;57.664;39.686;2024-01-07T05:44:53;101172.56;;;-19.27;41.35
63343;BME280;49465;57.664;39.686;2024-01-07T05:47:24;101164.75;;;-19.20;40.35
63343;BME280;49465;57.664;39.686;2024-01-07T05:49:57;101172.78;;;-19.13;40.80
63343;BME280;49465;57.664;39.686;2024-01-07T05:52:26;101184.06;;;-19.18;39.76
63343;BME280;49465;57.664;39.686;2024-01-07T05:54:58;101170.38;;;-19.23;40.23
63343;BME280;49465;57.664;39.686;2024-01-07T05:57:32;101180.38;;;-19.23;41.18
63343;BME280;49465;57.664;39.686;2024-01-07T06:00:05;101179.41;;;-19.25;40.63
63343;BME280;49465;57.664;39.686;2024-01-07T06:02:39;101182.34;;;-19.30;40.70
63343;BME280;49465;57.664;39.686;2024-01-07T06:05:10;101178.78;;;-19.34;40.36
63343;BME280;49465;57.664;39.686;2024-01-07T06:07:44;101187.34;;;-19.42;40.08
63343;BME280;49465;57.664;39.686;2024-01-07T06:10:21;101193.00;;;-19.45;40.53
63343;BME280;49465;57.664;39.686;2024-01-07T06:12:53;101205.28;;;-19.48;41.12
63343;BME280;49465;57.664;39.686;2024-01-07T06:15:27;101215.19;;;-19.49;40.74
63343;BME280;49465;57.664;39.686;2024-01-07T06:17:59;101221.72;;;-19.51;40.57
63343;BME280;49465;57.664;39.686;2024-01-07T06:20:31;101230.59;;;-19.55;40.78
63343;BME280;49465;57.664;39.686;2024-01-07T06:23:05;101231.28;;;-19.58;40.05
63343;BME280;49465;57.664;39.686;2024-01-07T06:25:37;101229.09;;;-19.65;40.66
63343;BME280;49465;57.664;39.686;2024-01-07T06:28:14;101223.84;;;-19.68;40.84
63343;BME280;49465;57.664;39.686;2024-01-07T06:30:43;101237.31;;;-19.66;39.93
63343;BME280;49465;57.664;39.686;2024-01-07T06:33:14;101226.06;;;-19.73;40.70
63343;BME280;49465;57.664;39.686;2024-01-07T06:35:49;101235.75;;;-19.77;40.59
63343;BME280;49465;57.664;39.686;2024-01-07T06:38:15;101235.19;;;-19.85;40.82
63343;BME280;49465;57.664;39.686;2024-01-07T06:40:44;101240.06;;;-19.86;40.12
63343;BME280;49465;57.664;39.686;2024-01-07T06:43:13;101238.97;;;-19.90;40.32
63343;BME280;49465;57.664;39.686;2024-01-07T06:45:48;101237.13;;;-19.92;40.00
63343;BME280;49465;57.664;39.686;2024-01-07T06:48:22;101239.63;;;-19.92;40.30
63343;BME280;49465;57.664;39.686;2024-01-07T06:50:54;101248.41;;;-19.86;40.03
63343;BME280;49465;57.664;39.686;2024-01-07T06:53:27;101246.13;;;-19.95;40.50
63343;BME280;49465;57.664;39.686;2024-01-07T06:56:03;101250.34;;;-19.94;40.36
63343;BME280;49465;57.664;39.686;2024-01-07T06:58:37;101249.94;;;-19.88;40.23
63343;BME280;49465;57.664;39.686;2024-01-07T07:01:12;101243.22;;;-19.89;40.47
63343;BME280;49465;57.664;39.686;2024-01-07T07:03:43;101248.28;;;-19.87;40.75
63343;BME280;49465;57.664;39.686;2024-01-07T07:06:12;101244.72;;;-19.91;40.50
63343;BME280;49465;57.664;39.686;2024-01-07T07:08:45;101248.41;;;-19.86;40.27
63343;BME280;49465;57.664;39.686;2024-01-07T07:11:15;101247.00;;;-19.94;40.70
63343;BME280;49465;57.664;39.686;2024-01-07T07:13:47;101250.59;;;-19.90;41.04
63343;BME280;49465;57.664;39.686;2024-01-07T07:16:16;101242.28;;;-20.01;40.20
63343;BME280;49465;57.664;39.686;2024-01-07T07:18:50;101247.09;;;-19.92;39.94
63343;BME280;49465;57.664;39.686;2024-01-07T07:21:19;101247.75;;;-19.83;40.18
63343;BME280;49465;57.664;39.686;2024-01-07T07:23:58;101254.50;;;-19.82;40.56
63343;BME280;49465;57.664;39.686;2024-01-07T07:26:25;101259.94;;;-19.76;40.09
63343;BME280;49465;57.664;39.686;2024-01-07T07:28:56;101255.56;;;-19.90;40.51
63343;BME280;49465;57.664;39.686;2024-01-07T07:31:26;101267.97;;;-19.80;41.08
63343;BME280;49465;57.664;39.686;2024-01-07T07:34:04;101278.63;;;-19.83;41.34
63343;BME280;49465;57.664;39.686;2024-01-07T07:36:39;101290.13;;;-19.85;40.52
63343;BME280;49465;57.664;39.686;2024-01-07T07:39:13;101290.69;;;-19.77;40.50
63343;BME280;49465;57.664;39.686;2024-01-07T07:41:43;101288.38;;;-19.74;40.41
63343;BME280;49465;57.664;39.686;2024-01-07T07:44:14;101299.22;;;-19.62;41.46
63343;BME280;49465;57.664;39.686;2024-01-07T07:46:46;101299.78;;;-19.54;40.67
63343;BME280;49465;57.664;39.686;2024-01-07T07:49:19;101299.25;;;-19.50;40.40
63343;BME280;49465;57.664;39.686;2024-01-07T07:51:51;101308.50;;;-19.49;41.12
63343;BME280;49465;57.664;39.686;2024-01-07T07:54:25;101304.06;;;-19.41;41.09
63343;BME280;49465;57.664;39.686;2024-01-07T07:56:55;101306.00;;;-19.37;41.37
63343;BME280;49465;57.664;39.686;2024-01-07T07:59:31;101311.69;;;-19.28;40.34
63343;BME280;49465;57.664;39.686;2024-01-07T08:02:01;101321.00;;;-19.25;40.06
63343;BME280;49465;57.664;39.686;2024-01-07T08:04:30;101311.56;;;-19.18;41.00
63343;BME280;49465;57.664;39.686;2024-01-07T08:06:58;101310.16;;;-19.14;40.08
63343;BME280;49465;57.664;39.686;2024-01-07T08:09:28;101307.09;;;-19.10;40.71
63343;BME280;49465;57.664;39.686;2024-01-07T08:11:57;101298.63;;;-19.12;40.88
63343;BME280;49465;57.664;39.686;2024-01-07T08:14:26;101309.72;;;-19.08;40.63
63343;BME280;49465;57.664;39.686;2024-01-07T08:16:58;101309.91;;;-19.05;40.30
63343;BME280;49465;57.664;39.686;2024-01-07T08:19:30;101307.97;;;-18.98;41.05
63343;BME280;49465;57.664;39.686;2024-01-07T08:21:59;101316.25;;;-18.99;40.23
63343;BME280;49465;57.664;39.686;2024-01-07T08:24:28;101324.06;;;-18.94;40.29
63343;BME280;49465;57.664;39.686;2024-01-07T08:27:00;101325.25;;;-18.89;41.29
63343;BME280;49465;57.664;39.686;2024-01-07T08:29:35;101320.59;;;-18.96;40.81
63343;BME280;49465;57.664;39.686;2024-01-07T08:32:10;101316.00;;;-18.90;41.41
63343;BME280;49465;57.664;39.686;2024-01-07T08:34:42;101323.81;;;-18.85;41.30
63343;BME280;49465;57.664;39.686;2024-01-07T08:37:20;101321.78;;;-18.79;41.25
63343;BME280;49465;57.664;39.686;2024-01-07T08:39:52;101326.50;;;-18.70;41.36
63343;BME280;49465;57.664;39.686;2024-01-07T08:42:28;101318.13;;;-18.59;41.42
63343;BME280;49465;57.664;39.686;2024-01-07T08:45:08;101326.78;;;-18.54;41.40
63343;BME280;49465;57.664;39.686;2024-01-07T08:47:43;101330.19;;;-18.54;41.06
63343;BME280;49465;57.664;39.686;2024-01-07T08:50:15;101332.53;;;-18.43;41.02
63343;BME280;49465;57.664;39.686;2024-01-07T08:52:52;101334.50;;;-18.39;41.39
63343;BME280;49465;57.664;39.686;2024-01-07T08:55:28;101338.53;;;-18.41;40.51
63343;BME280;49465;57.664;39.686;2024-01-07T08:58:05;101343.38;;;-18.31;40.42
63343;BME280;49465;57.664;39.686;2024-01-07T09:00:44;101333.59;;;-18.28;40.74
63343;BME280;49465;57.664;39.686;2024-01-07T09:03:16;101341.09;;;-18.28;41.60
63343;BME280;49465;57.664;39.686;2024-01-07T09:05:48;101337.81;;;-18.27;40.49
63343;BME280;49465;57.664;39.686;2024-01-07T09:08:25;101327.56;;;-18.18;41.89
63343;BME280;49465;57.664;39.686;2024-01-07T09:11:00;101331.47;;;-18.10;40.59
63343;BME280;49465;57.664;39.686;2024-01-07T09:13:32;101329.94;;;-18.08;40.73
63343;BME280;49465;57.664;39.686;2024-01-07T09:16:04;101333.63;;;-18.03;40.74
63343;BME280;49465;57.664;39.686;2024-01-07T09:18:38;101340.75;;;-17.96;41.68
63343;BME280;49465;57.664;39.686;2024-01-07T09:21:10;101340.66;;;-17.97;40.84
63343;BME280;49465;57.664;39.686;2024-01-07T09:23:41;101342.13;;;-17.87;40.56
63343;BME280;49465;57.664;39.686;2024-01-07T09:26:19;101342.69;;;-17.91;41.98
63343;BME280;49465;57.664;39.686;2024-01-07T09:28:48;101346.28;;;-17.88;41.26
63343;BME280;49465;57.664;39.686;2024-01-07T09:31:19;101345.22;;;-17.78;41.03
63343;BME280;49465;57.664;39.686;2024-01-07T09:33:48;101353.81;;;-17.75;40.72
63343;BME280;49465;57.664;39.686;2024-01-07T09:36:17;101349.47;;;-17.77;41.82
63343;BME280;49465;57.664;39.686;2024-01-07T09:38:47;101360.66;;;-17.72;41.08
63343;BME280;49465;57.664;39.686;2024-01-07T09:41:22;101367.22;;;-17.74;41.05
63343;BME280;49465;57.664;39.686;2024-01-07T09:43:51;101362.00;;;-17.77;42.25
63343;BME280;49465;57.664;39.686;2024-01-07T09:46:26;101363.06;;;-17.74;42.31
63343;BME280;49465;57.664;39.686;2024-01-07T09:48:59;101371.16;;;-17.78;41.50
63343;BME280;49465;57.664;39.686;2024-01-07T09:51:31;101368.50;;;-17.67;41.66
63343;BME280;49465;57.664;39.686;2024-01-07T09:54:05;101364.69;;;-17.74;41.33
63343;BME280;49465;57.664;39.686;2024-01-07T09:56:42;101363.84;;;-17.49;42.05
63343;BME280;49465;57.664;39.686;2024-01-07T09:59:20;101360.94;;;-17.42;41.85
63343;BME280;49465;57.664;39.686;2024-01-07T10:01:55;101368.84;;;-17.49;41.45
63343;BME280;49465;57.664;39.686;2024-01-07T10:04:29;101367.78;;;-17.53;41.57
63343;BME280;49465;57.664;39.686;2024-01-07T10:07:03;101362.59;;;-17.68;42.50
63343;BME280;49465;57.664;39.686;2024-01-07T10:09:35;101371.31;;;-17.63;41.65
63343;BME280;49465;57.664;39.686;2024-01-07T10:12:06;101374.38;;;-17.67;41.94
63343;BME280;49465;57.664;39.686;2024-01-07T10:14:41;101377.44;;;-17.71;41.73
63343;BME280;49465;57.664;39.686;2024-01-07T10:17:18;101364.00;;;-17.60;42.67
63343;BME280;49465;57.664;39.686;2024-01-07T10:19:55;101362.94;;;-17.63;42.83
63343;BME280;49465;57.664;39.686;2024-01-07T10:22:33;101367.44;;;-17.71;42.26
63343;BME280;49465;57.664;39.686;2024-01-07T10:25:10;101367.25;;;-17.61;42.96
63343;BME280;49465;57.664;39.686;2024-01-07T10:27:45;101373.47;;;-17.56;41.73
63343;BME280;49465;57.664;39.686;2024-01-07T10:30:22;101371.03;;;-17.54;41.74
63343;BME280;49465;57.664;39.686;2024-01-07T10:33:02;101370.72;;;-17.59;42.72
63343;BME280;49465;57.664;39.686;2024-01-07T10:35:40;101369.00;;;-17.60;42.01
63343;BME280;49465;57.664;39.686;2024-01-07T10:38:14;101371.75;;;-17.68;42.80
63343;BME280;49465;57.664;39.686;2024-01-07T10:40:48;101381.53;;;-17.60;42.63
63343;BME280;49465;57.664;39.686;2024-01-07T10:43:21;101379.28;;;-17.68;41.73
63343;BME280;49465;57.664;39.686;2024-01-07T10:45:56;101377.00;;;-17.65;41.84
63343;BME280;49465;57.664;39.686;2024-01-07T10:48:33;101376.44;;;-17.61;42.95
63343;BME280;49465;57.664;39.686;2024-01-07T10:51:11;101372.84;;;-17.65;42.20
63343;BME280;49465;57.664;39.686;2024-01-07T10:53:51;101385.03;;;-17.58;42.55
63343;BME280;49465;57.664;39.686;2024-01-07T10:56:29;101387.41;;;-17.34;41.64
63343;BME280;49465;57.664;39.686;2024-01-07T10:59:06;101393.34;;;-17.45;42.61
63343;BME280;49465;57.664;39.686;2024-01-07T11:01:38;101387.66;;;-17.43;41.30
63343;BME280;49465;57.664;39.686;2024-01-07T11:07:00;101380.91;;;-17.44;42.28
63343;BME280;49465;57.664;39.686;2024-01-07T11:09:40;101384.84;;;-17.47;42.60
63343;BME280;49465;57.664;39.686;2024-01-07T11:12:13;101381.41;;;-17.36;41.27
63343;BME280;49465;57.664;39.686;2024-01-07T11:14:45;101386.97;;;-17.40;42.21
63343;BME280;49465;57.664;39.686;2024-01-07T11:20:12;101394.38;;;-17.55;42.35
63343;BME280;49465;57.664;39.686;2024-01-07T11:22:47;101393.69;;;-17.53;41.70
63343;BME280;49465;57.664;39.686;2024-01-07T11:25:31;101403.66;;;-17.41;41.29
63343;BME280;49465;57.664;39.686;2024-01-07T11:28:04;101406.03;;;-17.56;41.91
63343;BME280;49465;57.664;39.686;2024-01-07T11:30:42;101405.16;;;-17.56;41.48
63343;BME280;49465;57.664;39.686;2024-01-07T11:33:14;101403.72;;;-17.53;41.37
63343;BME280;49465;57.664;39.686;2024-01-07T11:35:56;101403.22;;;-17.60;42.51
63343;BME280;49465;57.664;39.686;2024-01-07T11:38:28;101406.84;;;-17.43;41.98
63343;BME280;49465;57.664;39.686;2024-01-07T11:40:58;101403.53;;;-17.56;41.43
63343;BME280;49465;57.664;39.686;2024-01-07T11:43:32;101416.66;;;-17.46;42.58
63343;BME280;49465;57.664;39.686;2024-01-07T11:46:03;101412.16;;;-17.39;42.49
63343;BME280;49465;57.664;39.686;2024-01-07T11:48:39;101415.84;;;-17.34;41.92
63343;BME280;49465;57.664;39.686;2024-01-07T11:51:14;101416.09;;;-17.42;42.02
63343;BME280;49465;57.664;39.686;2024-01-07T11:53:46;101415.78;;;-17.47;42.26
63343;BME280;49465;57.664;39.686;2024-01-07T11:56:16;101424.59;;;-17.40;41.73
63343;BME280;49465;57.664;39.686;2024-01-07T11:58:50;101419.69;;;-17.64;42.97
63343;BME280;49465;57.664;39.686;2024-01-07T12:01:27;101420.97;;;-17.57;42.45
63343;BME280;49465;57.664;39.686;2024-01-07T12:04:01;101432.25;;;-17.50;42.78
63343;BME280;49465;57.664;39.686;2024-01-07T12:06:30;101440.50;;;-17.40;42.14
63343;BME280;49465;57.664;39.686;2024-01-07T12:09:11;101444.22;;;-17.46;42.02
63343;BME280;49465;57.664;39.686;2024-01-07T12:11:43;101446.75;;;-17.46;41.56
63343;BME280;49465;57.664;39.686;2024-01-07T12:14:16;101451.13;;;-17.30;42.02
63343;BME280;49465;57.664;39.686;2024-01-07T12:16:46;101446.00;;;-17.45;42.07
63343;BME280;49465;57.664;39.686;2024-01-07T12:19:17;101453.75;;;-17.54;42.19
63343;BME280;49465;57.664;39.686;2024-01-07T12:21:48;101435.59;;;-17.38;42.51
63343;BME280;49465;57.664;39.686;2024-01-07T12:24:20;101431.41;;;-17.51;41.85
63343;BME280;49465;57.664;39.686;2024-01-07T12:27:23;101440.41;;;-17.41;42.52
63343;BME280;49465;57.664;39.686;2024-01-07T12:30:11;101448.84;;;-17.27;41.99
63343;BME280;49465;57.664;39.686;2024-01-07T12:32:56;101448.94;;;-17.26;41.19
63343;BME280;49465;57.664;39.686;2024-01-07T12:35:28;101448.28;;;-17.23;41.77
63343;BME280;49465;57.664;39.686;2024-01-07T12:38:01;101458.00;;;-17.28;41.78
63343;BME280;49465;57.664;39.686;2024-01-07T12:40:36;101471.34;;;-17.16;41.67
63343;BME280;49465;57.664;39.686;2024-01-07T12:43:09;101475.28;;;-17.19;42.17
63343;BME280;49465;57.664;39.686;2024-01-07T12:45:44;101478.63;;;-17.32;41.25
63343;BME280;49465;57.664;39.686;2024-01-07T12:48:16;101475.25;;;-17.33;41.19
63343;BME280;49465;57.664;39.686;2024-01-07T12:50:48;101474.22;;;-17.23;42.13
63343;BME280;49465;57.664;39.686;2024-01-07T12:53:14;101478.88;;;-17.41;41.15
63343;BME280;49465;57.664;39.686;2024-01-07T12:55:58;101488.44;;;-17.35;41.13
63343;BME280;49465;57.664;39.686;2024-01-07T12:58:30;101480.41;;;-17.43;41.45
63343;BME280;49465;57.664;39.686;2024-01-07T13:01:03;101473.34;;;-17.48;42.02
63343;BME280;49465;57.664;39.686;2024-01-07T13:03:39;101474.13;;;-17.49;42.21